K7BM

Cottonwood Pass Airport

Cottonwood Pass, Colorado, USA
METAR K7BM 172054Z AUTO 25009G21KT 230V310 10SM CLR 05/M21 A2993 RMK AO2
Observed Flight Rules
Dec-17 @ 20:54 UTC (30 minutes ago) Visual Flight Rules
Wind Visibility Clouds
250° at 9 knots
 Gusting to 21 knots
10 miles
  • Clear skies
Temperatures Readings
Current 5°C / 41°F
Dewpoint -21°C / -6°F
Humidity 13%
Altimeter 29.93" Hg
Pressure 1014 hPa
Elevation 2995
METAR K7BM 172054Z AUTO 25009G21KT 230V310 10SM CLR 05/M21 A2993 RMK AO2
Observed Flight Rules
Dec-17 @ 20:54 UTC
(30 minutes ago)
VFR
Wind Visibility
250° at 9 knots
 Gusting to 21 knots
10 miles
Clouds
  • Clear skies
Temperature Dewpoint
5°C / 41°F -21°C / -6°F
Humidity Altimeter Pressure
13% 29.93" Hg 1014 hPa